createdAt,value
2018-03-11T00:01:31.297Z,72.61
2018-03-11T00:03:58.733Z,72.41
2018-03-11T00:06:26.538Z,72.33
2018-03-11T00:08:53.997Z,72.67
2018-03-11T00:11:21.476Z,72.74
2018-03-11T00:13:48.941Z,72.89
2018-03-11T00:16:16.392Z,73.02
2018-03-11T00:18:44.333Z,73.23
2018-03-11T00:21:11.772Z,73.40
2018-03-11T00:23:39.235Z,73.51
2018-03-11T00:26:06.669Z,73.34
2018-03-11T00:28:34.143Z,73.41
2018-03-11T00:31:01.670Z,73.49
2018-03-11T00:33:29.100Z,73.52
2018-03-11T00:35:56.531Z,73.55
2018-03-11T00:38:23.985Z,73.63
2018-03-11T00:40:51.449Z,73.63
2018-03-11T00:43:18.973Z,73.55
2018-03-11T00:45:46.480Z,73.60
2018-03-11T00:48:20.767Z,73.16
2018-03-11T00:51:12.023Z,73.03
2018-03-11T00:53:40.583Z,72.92
2018-03-11T00:56:08.645Z,72.70
2018-03-11T00:58:36.145Z,72.77
2018-03-11T01:01:03.665Z,72.60
2018-03-11T01:03:35.965Z,72.49
2018-03-11T01:08:38.207Z,72.59
2018-03-11T01:11:19.935Z,72.81
2018-03-11T01:13:50.171Z,73.04
2018-03-11T01:16:18.464Z,73.25
2018-03-11T01:18:46.033Z,73.60
2018-03-11T01:21:13.582Z,73.92
2018-03-11T01:23:41.127Z,74.01
2018-03-11T01:26:08.637Z,74.11
2018-03-11T01:28:36.097Z,74.23
2018-03-11T01:31:03.540Z,74.39
2018-03-11T01:33:31.007Z,74.60
2018-03-11T01:35:58.471Z,74.51
2018-03-11T01:38:25.938Z,74.78
2018-03-11T01:40:53.405Z,74.89
2018-03-11T01:43:20.879Z,75.20
2018-03-11T01:45:48.334Z,75.19
2018-03-11T01:48:15.819Z,75.38
2018-03-11T01:50:43.289Z,75.28
2018-03-11T01:53:10.721Z,75.44
2018-03-11T01:55:38.201Z,75.51
2018-03-11T01:58:05.651Z,75.71
2018-03-11T02:00:33.129Z,75.70
2018-03-11T02:03:00.586Z,75.97
2018-03-11T02:05:28.019Z,76.19
2018-03-11T02:07:55.470Z,76.15
2018-03-11T02:10:22.920Z,76.31
2018-03-11T02:12:50.361Z,76.66
2018-03-11T02:15:17.830Z,77.05
2018-03-11T02:17:45.489Z,77.12
2018-03-11T02:20:12.964Z,77.29
2018-03-11T02:22:40.426Z,77.05
2018-03-11T02:25:07.892Z,77.11
2018-03-11T02:27:35.340Z,76.95
2018-03-11T02:30:02.800Z,76.92
2018-03-11T02:32:30.450Z,77.04
2018-03-11T02:34:57.899Z,77.11
2018-03-11T02:37:25.346Z,77.02
2018-03-11T02:39:52.781Z,77.00
2018-03-11T02:42:20.289Z,76.95
2018-03-11T02:44:47.761Z,77.11
2018-03-11T02:47:15.305Z,77.27
2018-03-11T02:49:42.693Z,77.34
2018-03-11T02:52:10.172Z,77.50
2018-03-11T02:54:37.650Z,77.29
2018-03-11T02:57:05.121Z,77.29
2018-03-11T02:59:32.585Z,77.54
2018-03-11T03:02:00.045Z,77.39
2018-03-11T03:04:27.501Z,77.29
2018-03-11T03:06:55.166Z,77.27
2018-03-11T03:09:22.622Z,77.26
2018-03-11T03:11:50.161Z,77.40
2018-03-11T03:14:17.596Z,77.61
2018-03-11T03:16:45.075Z,77.54
2018-03-11T03:19:12.533Z,77.67
2018-03-11T03:21:39.967Z,77.73
2018-03-11T03:24:07.440Z,77.67
2018-03-11T03:26:34.961Z,77.78
2018-03-11T03:29:02.460Z,77.83
2018-03-11T03:31:29.920Z,77.92
2018-03-11T03:33:57.392Z,78.03
2018-03-11T03:36:24.854Z,77.87
2018-03-11T03:38:52.304Z,77.79
2018-03-11T03:41:34.710Z,77.91
2018-03-11T03:44:02.172Z,77.93
2018-03-11T03:46:29.638Z,77.86
2018-03-11T03:48:57.104Z,77.62
2018-03-11T03:51:24.595Z,77.92
2018-03-11T03:53:52.041Z,78.04
2018-03-11T03:56:19.676Z,78.13
2018-03-11T03:58:47.135Z,78.08
2018-03-11T04:01:14.594Z,77.92
2018-03-11T04:03:42.036Z,78.08
2018-03-11T04:06:09.540Z,77.98
2018-03-11T04:08:36.990Z,78.01
2018-03-11T04:11:04.528Z,78.04
2018-03-11T04:13:31.964Z,78.12
2018-03-11T04:15:59.460Z,78.12
2018-03-11T04:18:26.916Z,78.35
2018-03-11T04:20:54.870Z,78.36
2018-03-11T04:23:22.330Z,78.33
2018-03-11T04:25:49.822Z,78.66
2018-03-11T04:28:17.270Z,78.50
2018-03-11T04:30:44.736Z,78.56
2018-03-11T04:33:12.191Z,78.62
2018-03-11T04:35:39.688Z,78.73
2018-03-11T04:38:07.172Z,78.78
2018-03-11T04:40:34.620Z,78.93
2018-03-11T04:43:02.158Z,79.05
2018-03-11T04:45:29.642Z,78.87
2018-03-11T04:47:57.100Z,79.17
2018-03-11T04:50:24.599Z,78.92
2018-03-11T04:52:52.070Z,78.78
2018-03-11T04:55:19.516Z,78.79
2018-03-11T04:57:46.974Z,78.84
2018-03-11T05:00:14.434Z,78.96
2018-03-11T05:02:41.886Z,79.12
2018-03-11T05:05:09.360Z,79.04
2018-03-11T05:07:36.852Z,79.10
2018-03-11T05:10:04.300Z,79.05
2018-03-11T05:12:31.742Z,78.96
2018-03-11T05:14:59.234Z,79.05
2018-03-11T05:17:26.682Z,79.03
2018-03-11T05:19:54.126Z,79.21
2018-03-11T05:22:21.601Z,79.09
2018-03-11T05:24:49.068Z,78.99
2018-03-11T05:27:16.518Z,79.37
2018-03-11T05:29:43.976Z,79.40
2018-03-11T05:32:11.450Z,79.46
2018-03-11T05:34:38.923Z,79.36
2018-03-11T05:37:06.351Z,79.45
2018-03-11T05:39:33.791Z,79.44
2018-03-11T05:42:01.254Z,79.40
2018-03-11T05:44:28.802Z,79.44
2018-03-11T05:46:56.270Z,79.45
2018-03-11T05:49:23.723Z,79.50
2018-03-11T05:51:51.232Z,79.48
2018-03-11T05:54:18.727Z,79.31
2018-03-11T05:56:46.200Z,79.27
2018-03-11T05:59:14.528Z,79.30
2018-03-11T06:01:41.983Z,79.33
2018-03-11T06:04:09.444Z,79.48
2018-03-11T06:06:36.894Z,79.30
2018-03-11T06:09:04.396Z,79.45
2018-03-11T06:11:31.872Z,79.43
2018-03-11T06:13:59.372Z,79.85
2018-03-11T06:16:26.814Z,79.68
2018-03-11T06:18:54.242Z,79.57
2018-03-11T06:21:22.428Z,79.48
2018-03-11T06:23:49.946Z,79.61
2018-03-11T06:26:17.499Z,79.53
2018-03-11T06:28:44.988Z,79.53
2018-03-11T06:31:13.364Z,79.39
2018-03-11T06:33:41.546Z,79.45
2018-03-11T06:36:09.072Z,79.44
2018-03-11T06:38:37.514Z,79.37
2018-03-11T06:41:05.044Z,79.56
2018-03-11T06:43:32.572Z,79.46
2018-03-11T06:46:00.079Z,79.25
2018-03-11T06:51:10.399Z,79.21
2018-03-11T06:53:37.867Z,79.07
2018-03-11T06:56:05.316Z,78.90
2018-03-11T06:58:32.780Z,78.71
2018-03-11T07:01:00.247Z,78.59
2018-03-11T07:03:27.709Z,78.57
2018-03-11T07:05:55.209Z,78.57
2018-03-11T07:08:22.705Z,78.55
2018-03-11T07:10:50.217Z,78.36
2018-03-11T07:13:17.657Z,78.24
2018-03-11T07:15:45.102Z,77.91
2018-03-11T07:18:12.555Z,78.09
2018-03-11T07:20:39.999Z,78.10
2018-03-11T07:23:07.505Z,78.12
2018-03-11T07:25:34.954Z,78.12
2018-03-11T07:28:02.451Z,78.08
2018-03-11T07:30:29.922Z,78.27
2018-03-11T07:32:57.375Z,78.09
2018-03-11T07:35:24.847Z,78.12
2018-03-11T07:37:52.303Z,78.09
2018-03-11T07:40:19.793Z,78.24
2018-03-11T07:42:47.275Z,78.03
2018-03-11T07:45:14.729Z,77.98
2018-03-11T07:47:42.199Z,77.79
2018-03-11T07:50:09.641Z,77.82
2018-03-11T07:52:37.135Z,77.80
2018-03-11T07:55:04.607Z,77.87
2018-03-11T07:57:32.089Z,77.80
2018-03-11T07:59:59.613Z,77.85
2018-03-11T08:02:27.053Z,77.95
2018-03-11T08:04:54.506Z,78.04
2018-03-11T08:07:21.976Z,78.10
2018-03-11T08:09:49.455Z,78.15
2018-03-11T08:12:16.971Z,78.16
2018-03-11T08:14:44.437Z,78.22
2018-03-11T08:17:11.930Z,78.35
2018-03-11T08:19:39.446Z,78.48
2018-03-11T08:22:07.894Z,78.19
2018-03-11T08:24:35.354Z,78.03
2018-03-11T08:27:02.798Z,77.80
2018-03-11T08:29:30.287Z,77.77
2018-03-11T08:31:57.773Z,77.44
2018-03-11T08:34:25.301Z,77.26
2018-03-11T08:36:52.791Z,77.11
2018-03-11T08:39:20.265Z,76.91
2018-03-11T08:41:47.725Z,76.56
2018-03-11T08:44:15.175Z,76.00
2018-03-11T08:46:42.642Z,75.63
2018-03-11T08:49:10.103Z,75.06
2018-03-11T08:51:37.645Z,74.39
2018-03-11T08:54:05.221Z,73.73
2018-03-11T08:56:32.712Z,72.67
2018-03-11T08:59:00.222Z,71.61
2018-03-11T09:01:27.713Z,70.80
2018-03-11T09:03:55.214Z,69.85
2018-03-11T09:06:22.660Z,68.95
2018-03-11T09:08:50.141Z,68.28
2018-03-11T09:11:17.686Z,67.51
2018-03-11T09:13:45.196Z,66.45
2018-03-11T09:16:12.692Z,65.32
2018-03-11T09:18:40.120Z,65.15
2018-03-11T09:21:07.635Z,63.91
2018-03-11T09:23:35.106Z,62.52
2018-03-11T09:26:02.603Z,61.34
2018-03-11T09:28:30.096Z,59.44
2018-03-11T09:30:57.624Z,58.90
2018-03-11T09:33:25.166Z,57.91
2018-03-11T09:35:52.692Z,56.00
2018-03-11T09:38:20.185Z,53.77
2018-03-11T09:40:47.753Z,52.75
2018-03-11T09:43:15.203Z,50.67
2018-03-11T09:45:42.712Z,48.56
2018-03-11T09:48:10.180Z,46.00
2018-03-11T09:50:37.643Z,45.83
2018-03-11T09:53:05.166Z,43.42
2018-03-11T09:55:32.654Z,42.52
2018-03-11T09:58:00.121Z,41.78
2018-03-11T10:00:27.599Z,41.96
2018-03-11T10:02:55.058Z,40.80
2018-03-11T10:05:22.534Z,40.08
2018-03-11T10:07:49.979Z,39.30
2018-03-11T10:10:17.484Z,37.93
2018-03-11T10:12:44.961Z,36.80
2018-03-11T10:15:12.418Z,36.22
2018-03-11T10:17:39.879Z,37.29
2018-03-11T10:20:07.362Z,36.42
2018-03-11T10:22:34.836Z,36.03
2018-03-11T10:25:02.273Z,35.14
2018-03-11T10:27:29.811Z,35.78
2018-03-11T10:29:57.274Z,34.99
2018-03-11T10:32:24.763Z,35.25
2018-03-11T10:34:53.813Z,34.60
2018-03-11T10:37:21.307Z,35.40
2018-03-11T10:39:49.055Z,34.55
2018-03-11T10:42:16.621Z,33.66
2018-03-11T10:44:44.308Z,34.06
2018-03-11T10:47:13.041Z,34.01
2018-03-11T10:49:41.519Z,35.40
2018-03-11T10:52:09.318Z,35.36
2018-03-11T10:54:37.069Z,36.28
2018-03-11T10:57:04.633Z,36.32
2018-03-11T10:59:35.571Z,36.59
2018-03-11T11:02:08.741Z,38.22
2018-03-11T11:04:41.883Z,38.76
2018-03-11T11:07:09.426Z,39.40
2018-03-11T11:09:36.899Z,40.21
2018-03-11T11:12:04.365Z,41.01
2018-03-11T11:14:31.865Z,42.12
2018-03-11T11:16:59.373Z,42.75
2018-03-11T11:19:26.836Z,43.61
2018-03-11T11:21:54.321Z,44.60
2018-03-11T11:24:21.794Z,45.12
2018-03-11T11:26:49.296Z,45.69
2018-03-11T11:29:16.780Z,45.37
2018-03-11T11:31:45.214Z,44.75
2018-03-11T11:34:12.717Z,44.41
2018-03-11T11:36:40.210Z,44.94
2018-03-11T11:39:07.778Z,45.32
2018-03-11T11:41:35.304Z,45.75
2018-03-11T11:44:02.804Z,45.72
2018-03-11T11:46:30.350Z,44.92
2018-03-11T11:48:57.878Z,43.70
2018-03-11T11:51:25.416Z,41.76
2018-03-11T11:53:52.915Z,41.42
2018-03-11T11:56:21.482Z,40.23
2018-03-11T11:58:49.151Z,39.42
2018-03-11T12:01:16.775Z,38.61
2018-03-11T12:03:44.306Z,37.38
2018-03-11T12:06:11.866Z,37.19
2018-03-11T12:08:39.340Z,36.46
2018-03-11T12:11:06.794Z,36.15
2018-03-11T12:13:34.288Z,35.67
2018-03-11T12:16:01.912Z,35.96
2018-03-11T12:18:29.408Z,35.66
2018-03-11T12:20:56.964Z,36.03
2018-03-11T12:23:24.451Z,36.75
2018-03-11T12:25:51.950Z,36.31
2018-03-11T12:28:19.432Z,35.99
2018-03-11T12:30:46.992Z,36.27
2018-03-11T12:33:14.419Z,37.07
2018-03-11T12:35:41.895Z,37.99
2018-03-11T12:38:10.073Z,37.77
2018-03-11T12:40:37.574Z,36.78
2018-03-11T12:43:05.100Z,36.99
2018-03-11T12:45:32.656Z,36.74
2018-03-11T12:48:00.113Z,37.30
2018-03-11T12:50:27.632Z,36.92
2018-03-11T12:52:55.166Z,36.28
2018-03-11T12:55:22.680Z,36.21
2018-03-11T12:57:50.144Z,36.72
2018-03-11T13:00:17.656Z,37.32
2018-03-11T13:02:45.168Z,37.71
2018-03-11T13:05:12.686Z,37.64
2018-03-11T13:07:40.237Z,38.71
2018-03-11T13:10:07.760Z,38.99
2018-03-11T13:12:35.238Z,39.34
2018-03-11T13:15:02.718Z,38.88
2018-03-11T13:17:30.220Z,38.46
2018-03-11T13:20:09.566Z,37.45
2018-03-11T13:22:37.118Z,36.94
2018-03-11T13:25:04.589Z,37.38
2018-03-11T13:27:32.143Z,37.53
2018-03-11T13:29:59.656Z,37.42
2018-03-11T13:32:39.083Z,37.33
2018-03-11T13:35:06.567Z,37.89
2018-03-11T13:37:34.034Z,38.13
2018-03-11T13:43:02.420Z,38.65
2018-03-11T13:45:41.900Z,40.04
2018-03-11T13:48:09.373Z,40.92
2018-03-11T13:50:36.938Z,41.59
2018-03-11T13:56:13.160Z,42.93
2018-03-11T13:58:44.206Z,43.30
2018-03-11T14:01:11.787Z,43.49
2018-03-11T14:03:39.245Z,43.60
2018-03-11T14:06:06.783Z,43.85
2018-03-11T14:08:34.543Z,44.37
2018-03-11T14:11:06.948Z,44.75
2018-03-11T14:13:34.503Z,45.11
2018-03-11T14:16:01.974Z,45.67
2018-03-11T14:18:29.417Z,45.96
2018-03-11T14:20:56.924Z,45.93
2018-03-11T14:23:24.365Z,45.99
2018-03-11T14:25:51.806Z,45.79
2018-03-11T14:28:19.296Z,45.91
2018-03-11T14:30:46.755Z,45.85
2018-03-11T14:33:14.336Z,46.03
2018-03-11T14:35:41.837Z,46.44
2018-03-11T14:38:09.587Z,46.68
2018-03-11T14:40:37.128Z,46.91
2018-03-11T14:43:04.641Z,47.00
2018-03-11T14:45:32.129Z,47.24
2018-03-11T14:48:00.331Z,47.16
2018-03-11T14:50:27.919Z,47.20
2018-03-11T14:52:55.472Z,47.14
2018-03-11T14:55:22.951Z,47.34
2018-03-11T14:57:50.399Z,47.09
2018-03-11T15:00:17.931Z,47.05
2018-03-11T15:02:45.401Z,47.47
2018-03-11T15:05:12.917Z,46.73
2018-03-11T15:07:41.011Z,47.22
2018-03-11T15:10:09.039Z,48.53
2018-03-11T15:12:36.506Z,49.09
2018-03-11T15:15:03.949Z,49.62
2018-03-11T15:17:31.397Z,49.58
2018-03-11T15:19:58.845Z,49.59
2018-03-11T15:22:26.303Z,49.97
2018-03-11T15:24:53.780Z,50.25
2018-03-11T15:27:21.245Z,50.77
2018-03-11T15:29:48.697Z,50.82
2018-03-11T15:32:16.180Z,50.90
2018-03-11T15:34:43.661Z,51.15
2018-03-11T15:37:11.179Z,51.16
2018-03-11T15:39:38.633Z,51.24
2018-03-11T15:42:06.124Z,51.35
2018-03-11T15:44:33.633Z,51.41
2018-03-11T15:47:01.091Z,51.55
2018-03-11T15:49:28.569Z,51.67
2018-03-11T15:51:56.116Z,51.89
2018-03-11T15:54:23.568Z,51.76
2018-03-11T15:56:51.104Z,51.78
2018-03-11T15:59:18.563Z,52.08
2018-03-11T16:01:45.985Z,51.88
2018-03-11T16:04:13.437Z,51.98
2018-03-11T16:06:40.873Z,52.19
2018-03-11T16:09:08.325Z,52.00
2018-03-11T16:11:35.811Z,52.43
2018-03-11T16:14:03.301Z,52.42
2018-03-11T16:16:30.794Z,52.60
2018-03-11T16:18:58.305Z,52.75
2018-03-11T16:21:25.815Z,52.91
2018-03-11T16:23:53.385Z,53.21
2018-03-11T16:26:20.864Z,53.37
2018-03-11T16:28:48.371Z,53.54
2018-03-11T16:31:15.833Z,53.65
2018-03-11T16:33:43.294Z,53.86
2018-03-11T16:36:10.737Z,54.09
2018-03-11T16:38:38.205Z,54.26
2018-03-11T16:41:05.669Z,54.51
2018-03-11T16:43:33.129Z,54.39
2018-03-11T16:46:00.583Z,54.54
2018-03-11T16:48:28.197Z,54.67
2018-03-11T16:50:55.681Z,54.80
2018-03-11T16:53:23.118Z,55.15
2018-03-11T16:55:50.579Z,55.25
2018-03-11T16:58:18.029Z,55.29
2018-03-11T17:00:45.492Z,55.42
2018-03-11T17:03:12.929Z,55.58
2018-03-11T17:05:40.402Z,55.91
2018-03-11T17:08:07.862Z,56.10
2018-03-11T17:10:35.361Z,56.25
2018-03-11T17:13:02.833Z,56.36
2018-03-11T17:15:30.301Z,56.33
2018-03-11T17:17:57.773Z,56.41
2018-03-11T17:20:25.255Z,56.58
2018-03-11T17:22:52.727Z,56.67
2018-03-11T17:25:20.325Z,56.68
2018-03-11T17:27:47.807Z,56.81
2018-03-11T17:30:15.329Z,56.96
2018-03-11T17:32:42.877Z,57.05
2018-03-11T17:35:10.377Z,57.09
2018-03-11T17:37:37.850Z,57.27
2018-03-11T17:40:05.321Z,57.37
2018-03-11T17:42:32.828Z,57.55
2018-03-11T17:45:00.295Z,57.64
2018-03-11T17:47:27.749Z,57.75
2018-03-11T17:49:55.295Z,57.72
2018-03-11T17:52:22.763Z,57.75
2018-03-11T17:54:50.233Z,58.02
2018-03-11T17:57:17.720Z,58.19
2018-03-11T17:59:45.182Z,58.37
2018-03-11T18:02:12.655Z,58.34
2018-03-11T18:04:40.111Z,58.48
2018-03-11T18:07:07.915Z,58.73
2018-03-11T18:09:35.399Z,58.81
2018-03-11T18:12:02.869Z,59.07
2018-03-11T18:14:30.351Z,59.16
2018-03-11T18:16:57.846Z,59.28
2018-03-11T18:19:25.459Z,59.30
2018-03-11T18:21:52.945Z,59.30
2018-03-11T18:24:20.425Z,59.38
2018-03-11T18:26:47.884Z,59.61
2018-03-11T18:29:15.399Z,59.56
2018-03-11T18:31:42.901Z,59.75
2018-03-11T18:34:10.446Z,59.53
2018-03-11T18:36:37.965Z,59.63
2018-03-11T18:39:05.727Z,59.30
2018-03-11T18:41:33.243Z,59.08
2018-03-11T18:44:00.732Z,58.72
2018-03-11T18:46:28.234Z,58.69
2018-03-11T18:48:55.746Z,58.29
2018-03-11T18:51:23.523Z,58.19
2018-03-11T18:53:50.988Z,58.00
2018-03-11T18:56:18.469Z,57.84
2018-03-11T18:58:46.099Z,57.09
2018-03-11T19:01:13.572Z,56.84
2018-03-11T19:03:41.106Z,56.86
2018-03-11T19:06:08.537Z,56.64
2018-03-11T19:08:36.015Z,56.26
2018-03-11T19:11:03.511Z,56.21
2018-03-11T19:13:31.123Z,56.27
2018-03-11T19:15:58.630Z,56.13
2018-03-11T19:18:26.148Z,56.28
2018-03-11T19:20:53.645Z,56.09
2018-03-11T19:23:21.107Z,55.94
2018-03-11T19:25:48.576Z,55.96
2018-03-11T19:28:16.220Z,56.20
2018-03-11T19:30:43.709Z,56.31
2018-03-11T19:33:11.168Z,56.16
2018-03-11T19:35:38.666Z,56.62
2018-03-11T19:38:06.164Z,56.80
2018-03-11T19:40:33.672Z,56.72
2018-03-11T19:43:01.151Z,56.85
2018-03-11T19:45:28.711Z,56.99
2018-03-11T19:47:56.199Z,57.07
2018-03-11T19:50:23.731Z,57.15
2018-03-11T19:52:51.546Z,57.11
2018-03-11T19:55:19.152Z,57.29
2018-03-11T19:57:46.630Z,57.46
2018-03-11T20:00:14.135Z,57.50
2018-03-11T20:02:41.645Z,57.61
2018-03-11T20:05:09.165Z,57.81
2018-03-11T20:07:36.618Z,57.73
2018-03-11T20:10:05.039Z,57.74
2018-03-11T20:12:32.534Z,57.78
2018-03-11T20:15:00.044Z,57.94
2018-03-11T20:17:27.530Z,57.99
2018-03-11T20:19:55.012Z,57.98
2018-03-11T20:22:22.499Z,58.28
2018-03-11T20:24:50.012Z,58.48
2018-03-11T20:27:17.515Z,58.50
2018-03-11T20:29:45.039Z,58.86
2018-03-11T20:32:12.536Z,59.02
2018-03-11T20:34:40.084Z,59.29
2018-03-11T20:37:07.564Z,59.16
2018-03-11T20:39:35.095Z,59.03
2018-03-11T20:42:02.550Z,58.95
2018-03-11T20:44:30.030Z,58.98
2018-03-11T20:46:57.504Z,59.21
2018-03-11T20:49:25.031Z,59.25
2018-03-11T20:51:52.558Z,59.39
2018-03-11T20:54:20.012Z,59.28
2018-03-11T20:56:47.467Z,59.29
2018-03-11T20:59:14.948Z,59.49
2018-03-11T21:01:42.420Z,59.81
2018-03-11T21:04:09.910Z,60.00
2018-03-11T21:06:37.346Z,59.93
2018-03-11T21:09:05.843Z,59.82
2018-03-11T21:11:33.314Z,59.92
2018-03-11T21:14:00.766Z,59.94
2018-03-11T21:16:28.273Z,59.87
2018-03-11T21:18:55.710Z,59.85
2018-03-11T21:21:23.260Z,59.86
2018-03-11T21:23:50.798Z,59.94
2018-03-11T21:26:18.225Z,60.19
2018-03-11T21:28:45.674Z,60.23
2018-03-11T21:31:14.307Z,60.30
2018-03-11T21:33:41.838Z,60.33
2018-03-11T21:36:09.382Z,60.15
2018-03-11T21:38:36.948Z,60.15
2018-03-11T21:41:04.446Z,60.22
2018-03-11T21:43:31.931Z,60.26
2018-03-11T21:45:59.386Z,60.29
2018-03-11T21:48:26.829Z,60.44
2018-03-11T21:50:54.314Z,60.54
2018-03-11T21:53:21.806Z,60.72
2018-03-11T21:55:49.273Z,60.61
2018-03-11T21:58:16.762Z,60.63
2018-03-11T22:00:44.260Z,60.58
2018-03-11T22:03:11.746Z,60.63
2018-03-11T22:05:39.250Z,60.73
2018-03-11T22:08:06.728Z,60.66
2018-03-11T22:10:34.214Z,60.84
2018-03-11T22:13:01.690Z,60.75
2018-03-11T22:15:29.182Z,60.99
2018-03-11T22:17:56.656Z,61.20
2018-03-11T22:20:24.149Z,61.28
2018-03-11T22:22:51.712Z,61.66
2018-03-11T22:25:19.199Z,61.49
2018-03-11T22:27:46.664Z,61.64
2018-03-11T22:30:14.132Z,61.68
2018-03-11T22:32:41.575Z,61.65
2018-03-11T22:35:09.027Z,61.66
2018-03-11T22:37:36.481Z,61.67
2018-03-11T22:40:04.012Z,61.61
2018-03-11T22:42:31.492Z,61.68
2018-03-11T22:44:58.974Z,61.91
2018-03-11T22:47:26.456Z,61.90
2018-03-11T22:49:53.975Z,61.76
2018-03-11T22:52:21.883Z,61.72
2018-03-11T22:54:49.355Z,61.47
2018-03-11T22:57:16.914Z,61.36
2018-03-11T22:59:44.443Z,61.24
2018-03-11T23:02:11.906Z,61.24
2018-03-11T23:04:39.697Z,61.42
2018-03-11T23:07:07.209Z,61.30
2018-03-11T23:09:34.741Z,61.31
2018-03-11T23:12:02.213Z,61.31
2018-03-11T23:14:29.677Z,61.35
2018-03-11T23:16:57.162Z,61.51
2018-03-11T23:19:24.708Z,61.78
2018-03-11T23:22:01.862Z,61.60
2018-03-11T23:24:29.315Z,61.74
2018-03-11T23:26:56.767Z,62.02
2018-03-11T23:29:24.250Z,62.26
2018-03-11T23:31:51.735Z,62.20
2018-03-11T23:34:19.202Z,62.35
2018-03-11T23:36:46.710Z,62.42
2018-03-11T23:39:14.184Z,62.24
2018-03-11T23:41:41.666Z,62.41
2018-03-11T23:44:09.173Z,62.60
2018-03-11T23:46:36.674Z,62.65
2018-03-11T23:49:04.173Z,62.60
2018-03-11T23:51:31.704Z,62.69
2018-03-11T23:53:59.161Z,62.68
2018-03-11T23:56:26.615Z,62.66
2018-03-11T23:58:54.066Z,62.74
